Time;durP1;ratioP1;P1;durP2;ratioP2;P2;SDS_P1;SDS_P2;PMS_P1;PMS_P2;Temp;Humidity;BMP_temperature;BMP_pressure;BME280_temperature;BME280_humidity;BME280_pressure;Samples;Min_cycle;Max_cycle;Signal;HPM_P1;HPM_P2
2021/12/02 00:00:50;;;;;;;;;;;26.00;95.70;;;;;;5027234;28;20461;-73
2021/12/02 00:03:17;;;;;;;;;;;26.10;96.10;;;;;;5016040;28;19913;-73
2021/12/02 00:05:44;;;;;;;;;;;26.20;95.60;;;;;;5016030;28;20387;-72
2021/12/02 00:08:10;;;;;;;;;;;26.20;95.40;;;;;;5022909;28;20366;-72
2021/12/02 00:10:40;;;;;;;;;;;26.20;95.20;;;;;;5021498;28;20358;-72
2021/12/02 00:13:07;;;;;;;;;;;26.20;95.30;;;;;;5001837;28;19917;-72
2021/12/02 00:23:29;;;;;;;;;;;26.90;94.70;;;;;;5013008;28;20424;-72
2021/12/02 00:25:59;;;;;;;;;;;27.00;94.90;;;;;;5021278;28;19917;-72
2021/12/02 00:28:28;;;;;;;;;;;26.80;94.50;;;;;;5031138;28;19932;-73
2021/12/02 00:30:55;;;;;;;;;;;26.70;94.70;;;;;;5032578;28;19913;-72
2021/12/02 00:33:26;;;;;;;;;;;26.60;95.10;;;;;;5033048;28;19909;-72
2021/12/02 00:35:53;;;;;;;;;;;26.90;95.10;;;;;;5008839;28;19955;-70
2021/12/02 00:38:23;;;;;;;;;;;27.10;94.30;;;;;;4809396;28;5372004;-72
2021/12/02 00:40:50;;;;;;;;;;;27.20;93.90;;;;;;5013354;28;19921;-73
2021/12/02 00:43:17;;;;;;;;;;;27.40;93.60;;;;;;5013314;28;20377;-71
2021/12/02 00:45:44;;;;;;;;;;;27.60;93.50;;;;;;5031723;28;19919;-73
2021/12/02 00:48:11;;;;;;;;;;;27.60;93.70;;;;;;5032040;28;19910;-72
2021/12/02 00:50:38;;;;;;;;;;;27.80;93.40;;;;;;5031840;28;19909;-72
2021/12/02 00:53:06;;;;;;;;;;;28.00;93.00;;;;;;5032996;28;20389;-73
2021/12/02 00:55:37;;;;;;;;;;;28.20;93.50;;;;;;5030791;28;19955;-72
2021/12/02 00:58:04;;;;;;;;;;;28.50;93.20;;;;;;5029506;28;19974;-71
2021/12/02 01:00:33;;;;;;;;;;;28.80;92.50;;;;;;5010735;28;19937;-69
2021/12/02 01:03:02;;;;;;;;;;;29.00;92.70;;;;;;5018789;28;19913;-71
2021/12/02 01:05:32;;;;;;;;;;;29.00;92.30;;;;;;5033153;28;19948;-69
2021/12/02 01:08:22;;;;;;;;;;;29.10;91.60;;;;;;5032244;28;19988;-70
2021/12/02 01:10:55;;;;;;;;;;;29.10;91.80;;;;;;5033875;28;19913;-71
2021/12/02 01:13:25;;;;;;;;;;;29.20;91.00;;;;;;5035487;28;19909;-71
2021/12/02 01:15:59;;;;;;;;;;;29.10;90.00;;;;;;5025394;28;19909;-72
2021/12/02 01:18:34;;;;;;;;;;;29.00;90.80;;;;;;5032676;28;19917;-70
2021/12/02 01:21:07;;;;;;;;;;;29.10;91.00;;;;;;5032646;28;19920;-70
2021/12/02 01:23:36;;;;;;;;;;;29.30;90.10;;;;;;5029030;28;20004;-71
2021/12/02 01:26:05;;;;;;;;;;;29.30;90.10;;;;;;5011004;28;19935;-72
2021/12/02 01:28:37;;;;;;;;;;;29.30;90.30;;;;;;4995832;28;19909;-72
2021/12/02 01:31:07;;;;;;;;;;;29.30;90.40;;;;;;4994110;28;19913;-72
2021/12/02 01:33:34;;;;;;;;;;;29.80;90.30;;;;;;5032167;28;19920;-72
2021/12/02 01:36:01;;;;;;;;;;;30.20;89.80;;;;;;5031257;28;20388;-71
2021/12/02 01:38:29;;;;;;;;;;;30.30;88.30;;;;;;5030907;28;19921;-71
2021/12/02 01:40:56;;;;;;;;;;;30.50;88.70;;;;;;5036516;28;19917;-73
2021/12/02 01:43:30;;;;;;;;;;;30.80;88.30;;;;;;5036244;28;19916;-73
2021/12/02 01:45:57;;;;;;;;;;;31.00;87.50;;;;;;5036388;28;19909;-71
2021/12/02 01:48:25;;;;;;;;;;;31.00;86.40;;;;;;5037197;28;19909;-71
2021/12/02 01:51:01;;;;;;;;;;;30.70;86.70;;;;;;5036848;28;19909;-71
2021/12/02 01:53:30;;;;;;;;;;;30.70;85.80;;;;;;5036317;28;19916;-73
2021/12/02 01:55:57;;;;;;;;;;;30.60;85.10;;;;;;5036461;28;20369;-72
2021/12/02 01:58:23;;;;;;;;;;;31.00;85.60;;;;;;5018571;28;19921;-69
2021/12/02 02:00:50;;;;;;;;;;;31.30;84.40;;;;;;5036330;28;19992;-71
2021/12/02 02:03:17;;;;;;;;;;;31.50;82.70;;;;;;5033098;28;19909;-72
2021/12/02 02:05:44;;;;;;;;;;;31.60;82.10;;;;;;5036297;28;19996;-73
2021/12/02 02:08:11;;;;;;;;;;;31.20;82.30;;;;;;5035980;28;20273;-72
2021/12/02 02:10:39;;;;;;;;;;;30.80;82.70;;;;;;5036018;28;20285;-72
2021/12/02 02:13:08;;;;;;;;;;;30.80;83.00;;;;;;5036490;28;19948;-72
2021/12/02 02:15:35;;;;;;;;;;;31.30;80.70;;;;;;5018959;28;19956;-72
2021/12/02 02:21:00;;;;;;;;;;;31.40;79.00;;;;;;5035791;28;19909;-72
2021/12/02 02:23:29;;;;;;;;;;;31.00;79.90;;;;;;5035776;28;20384;-72
2021/12/02 02:25:56;;;;;;;;;;;30.80;81.50;;;;;;5035708;28;19910;-73
2021/12/02 02:28:23;;;;;;;;;;;30.50;80.40;;;;;;5035659;28;20358;-72
2021/12/02 02:30:50;;;;;;;;;;;30.10;80.90;;;;;;5035570;28;19976;-72
2021/12/02 02:33:21;;;;;;;;;;;29.90;81.60;;;;;;5035734;28;19918;-72
2021/12/02 02:35:48;;;;;;;;;;;29.70;82.80;;;;;;5035587;28;19940;-72
2021/12/02 02:38:14;;;;;;;;;;;30.20;83.60;;;;;;5019549;28;19921;-71
2021/12/02 02:40:44;;;;;;;;;;;30.70;82.50;;;;;;5035294;28;20281;-72
2021/12/02 02:43:11;;;;;;;;;;;31.30;81.10;;;;;;5035540;28;20297;-72
2021/12/02 02:45:38;;;;;;;;;;;31.80;80.90;;;;;;5035435;28;19915;-72
2021/12/02 02:48:05;;;;;;;;;;;32.30;77.90;;;;;;5035243;28;19917;-72
2021/12/02 02:50:32;;;;;;;;;;;32.50;76.20;;;;;;5034515;28;20161;-71
2021/12/02 02:53:06;;;;;;;;;;;32.30;75.30;;;;;;5035153;28;19915;-71
2021/12/02 02:55:35;;;;;;;;;;;31.90;76.30;;;;;;5035183;28;19909;-71
2021/12/02 03:00:35;;;;;;;;;;;32.30;78.80;;;;;;5035086;28;19932;-71
2021/12/02 03:05:57;;;;;;;;;;;32.80;76.80;;;;;;5019171;28;19995;-71
2021/12/02 03:08:32;;;;;;;;;;;33.10;75.10;;;;;;5017096;28;20388;-70
2021/12/02 03:10:59;;;;;;;;;;;33.30;73.50;;;;;;5002241;28;19963;-71
2021/12/02 03:13:48;;;;;;;;;;;33.50;73.50;;;;;;5034116;28;20329;-71
2021/12/02 03:18:59;;;;;;;;;;;34.10;72.30;;;;;;5034729;28;19920;-71
2021/12/02 03:21:26;;;;;;;;;;;34.40;71.10;;;;;;5034594;28;19952;-72
2021/12/02 03:23:54;;;;;;;;;;;34.50;71.00;;;;;;5026667;28;19909;-71
2021/12/02 03:26:21;;;;;;;;;;;34.70;70.70;;;;;;5034622;28;19941;-71
2021/12/02 03:28:49;;;;;;;;;;;34.90;70.20;;;;;;5034496;28;19924;-71
2021/12/02 03:31:16;;;;;;;;;;;35.00;70.00;;;;;;5033897;28;19957;-70
2021/12/02 03:33:43;;;;;;;;;;;35.00;68.40;;;;;;5034299;28;19913;-71
2021/12/02 03:36:10;;;;;;;;;;;35.10;67.00;;;;;;5016513;28;20474;-71
2021/12/02 03:38:37;;;;;;;;;;;35.20;66.70;;;;;;5044227;28;19924;-70
2021/12/02 03:41:04;;;;;;;;;;;35.30;66.40;;;;;;5035860;28;19913;-68
2021/12/02 03:43:38;;;;;;;;;;;35.30;66.30;;;;;;5037903;28;19916;-70
2021/12/02 03:46:05;;;;;;;;;;;35.50;66.30;;;;;;5034277;28;20286;-73
2021/12/02 03:48:32;;;;;;;;;;;35.10;67.10;;;;;;5029087;28;19917;-72
2021/12/02 03:50:59;;;;;;;;;;;34.70;65.90;;;;;;5023512;28;19916;-74
2021/12/02 03:53:25;;;;;;;;;;;34.60;66.80;;;;;;5014314;28;19910;-71
2021/12/02 03:55:52;;;;;;;;;;;34.80;67.20;;;;;;4996861;28;19914;-72
2021/12/02 03:58:19;;;;;;;;;;;35.10;67.70;;;;;;5014174;28;19942;-72
2021/12/02 04:00:45;;;;;;;;;;;35.30;67.00;;;;;;5014068;28;19992;-72
2021/12/02 04:03:12;;;;;;;;;;;35.30;65.70;;;;;;5014022;28;19909;-72
2021/12/02 04:05:39;;;;;;;;;;;35.30;64.10;;;;;;5014577;28;20056;-72
2021/12/02 04:08:06;;;;;;;;;;;35.00;64.40;;;;;;5013964;28;19913;-72
2021/12/02 04:10:33;;;;;;;;;;;35.10;65.70;;;;;;5014004;28;19910;-71
2021/12/02 04:15:33;;;;;;;;;;;35.30;60.60;;;;;;5013967;28;19913;-72
2021/12/02 04:18:00;;;;;;;;;;;35.40;60.40;;;;;;5013788;28;19917;-69
2021/12/02 04:20:27;;;;;;;;;;;35.20;63.00;;;;;;5013770;28;19940;-70
2021/12/02 04:22:54;;;;;;;;;;;34.90;63.40;;;;;;4996217;28;20004;-68
2021/12/02 04:25:21;;;;;;;;;;;35.00;64.10;;;;;;5004004;28;19909;-72
2021/12/02 04:27:47;;;;;;;;;;;34.80;64.80;;;;;;5033500;28;20293;-70
2021/12/02 04:30:15;;;;;;;;;;;34.10;65.90;;;;;;5033441;28;19945;-70
2021/12/02 04:32:42;;;;;;;;;;;33.50;66.00;;;;;;5015615;28;19980;-68
2021/12/02 04:35:09;;;;;;;;;;;33.60;67.60;;;;;;5033316;28;20366;-71
2021/12/02 04:37:35;;;;;;;;;;;34.10;69.10;;;;;;5033017;28;20289;-70
2021/12/02 04:40:05;;;;;;;;;;;34.70;69.20;;;;;;5033101;28;19913;-71
2021/12/02 04:42:31;;;;;;;;;;;34.90;68.70;;;;;;5015657;28;19913;-71
2021/12/02 04:44:58;;;;;;;;;;;35.10;68.60;;;;;;5033252;28;19955;-71
2021/12/02 04:47:25;;;;;;;;;;;35.30;68.90;;;;;;5033210;28;19932;-71
2021/12/02 04:49:51;;;;;;;;;;;34.80;68.70;;;;;;5033046;28;19963;-71
2021/12/02 04:52:19;;;;;;;;;;;34.40;69.60;;;;;;5033162;28;20358;-68
2021/12/02 04:54:48;;;;;;;;;;;34.40;68.60;;;;;;5033128;28;19937;-71
2021/12/02 04:57:14;;;;;;;;;;;34.30;69.30;;;;;;5032988;28;19952;-70
2021/12/02 04:59:41;;;;;;;;;;;34.30;69.80;;;;;;5032917;28;20007;-70
2021/12/02 05:02:08;;;;;;;;;;;34.20;70.20;;;;;;5032967;28;19940;-71
2021/12/02 05:04:35;;;;;;;;;;;34.30;70.10;;;;;;5033007;28;19909;-70
2021/12/02 05:07:01;;;;;;;;;;;34.40;69.80;;;;;;5032957;28;19966;-71
2021/12/02 05:09:28;;;;;;;;;;;34.50;69.80;;;;;;5033031;28;20410;-70
2021/12/02 05:11:55;;;;;;;;;;;34.70;70.00;;;;;;5015455;28;19977;-71
2021/12/02 05:14:21;;;;;;;;;;;34.90;69.40;;;;;;5034398;28;20372;-71
2021/12/02 05:16:48;;;;;;;;;;;35.00;69.60;;;;;;5037014;28;19920;-70
2021/12/02 05:19:15;;;;;;;;;;;35.20;69.00;;;;;;5036952;28;19944;-70
2021/12/02 05:21:42;;;;;;;;;;;35.40;69.50;;;;;;5036856;28;20270;-70
2021/12/02 05:24:08;;;;;;;;;;;36.30;67.80;;;;;;5036403;28;19920;-70
2021/12/02 05:26:35;;;;;;;;;;;37.10;67.70;;;;;;5036776;28;19931;-70
2021/12/02 05:29:02;;;;;;;;;;;36.80;67.00;;;;;;5036775;28;20320;-70
2021/12/02 05:31:30;;;;;;;;;;;36.30;67.40;;;;;;5036622;28;20437;-70
2021/12/02 05:33:57;;;;;;;;;;;36.00;67.40;;;;;;5019202;28;19913;-70
2021/12/02 05:36:23;;;;;;;;;;;35.80;67.80;;;;;;5018190;28;19963;-70
2021/12/02 05:38:50;;;;;;;;;;;35.40;68.40;;;;;;5018762;28;19929;-70
2021/12/02 05:41:17;;;;;;;;;;;35.20;67.70;;;;;;5036591;28;19913;-71
2021/12/02 05:43:44;;;;;;;;;;;35.10;68.20;;;;;;5018663;28;19909;-70
2021/12/02 05:46:14;;;;;;;;;;;35.10;68.40;;;;;;5036412;28;19963;-70
2021/12/02 05:48:41;;;;;;;;;;;35.10;68.20;;;;;;5036451;28;19909;-71
2021/12/02 05:51:08;;;;;;;;;;;34.90;68.20;;;;;;5036411;28;19915;-71
2021/12/02 05:53:34;;;;;;;;;;;34.70;68.20;;;;;;5036306;28;19967;-69
2021/12/02 05:56:01;;;;;;;;;;;34.70;68.70;;;;;;5037672;28;19916;-69
2021/12/02 05:58:28;;;;;;;;;;;34.80;68.60;;;;;;5034428;28;19936;-70
2021/12/02 06:00:55;;;;;;;;;;;34.80;68.90;;;;;;5009883;28;20028;-70
2021/12/02 06:03:22;;;;;;;;;;;34.80;68.70;;;;;;4998843;28;19992;-69
2021/12/02 06:05:49;;;;;;;;;;;34.60;68.50;;;;;;4998451;28;19960;-71
2021/12/02 06:08:15;;;;;;;;;;;34.60;68.60;;;;;;5016233;28;19910;-69
2021/12/02 06:10:42;;;;;;;;;;;34.60;68.40;;;;;;5013758;28;20317;-68
2021/12/02 06:13:09;;;;;;;;;;;34.50;68.90;;;;;;5023864;28;20266;-70
2021/12/02 06:15:36;;;;;;;;;;;34.50;69.20;;;;;;5016133;28;19945;-69
2021/12/02 06:18:03;;;;;;;;;;;34.40;68.50;;;;;;5019106;28;20358;-69
2021/12/02 06:20:30;;;;;;;;;;;34.40;68.20;;;;;;5035858;28;19913;-69
2021/12/02 06:22:56;;;;;;;;;;;34.30;68.50;;;;;;5035782;28;19913;-70
2021/12/02 06:27:53;;;;;;;;;;;34.00;69.10;;;;;;5035617;28;19913;-73
2021/12/02 06:30:21;;;;;;;;;;;33.90;68.70;;;;;;5035612;28;19913;-70
2021/12/02 06:32:48;;;;;;;;;;;33.70;68.90;;;;;;5035615;28;19999;-70
2021/12/02 06:35:14;;;;;;;;;;;33.70;68.90;;;;;;5035499;28;19920;-70
2021/12/02 06:37:41;;;;;;;;;;;33.50;68.80;;;;;;5015631;28;19921;-70
2021/12/02 06:40:09;;;;;;;;;;;33.20;68.70;;;;;;5035390;28;19932;-70
2021/12/02 06:42:35;;;;;;;;;;;33.10;69.50;;;;;;5034244;28;19913;-70
2021/12/02 06:45:03;;;;;;;;;;;33.00;69.80;;;;;;5035371;28;19967;-70
2021/12/02 06:47:40;;;;;;;;;;;33.10;69.70;;;;;;5035239;28;19913;-70
2021/12/02 06:50:09;;;;;;;;;;;33.10;69.40;;;;;;5035183;28;20385;-70
2021/12/02 06:52:36;;;;;;;;;;;33.10;70.40;;;;;;5034044;28;20036;-69
2021/12/02 06:55:03;;;;;;;;;;;33.00;70.00;;;;;;5035449;28;20407;-70
2021/12/02 06:57:30;;;;;;;;;;;32.80;70.40;;;;;;5033584;28;20304;-70
2021/12/02 07:00:01;;;;;;;;;;;32.60;70.10;;;;;;5017246;28;20358;-70
2021/12/02 07:02:29;;;;;;;;;;;32.40;70.20;;;;;;5034970;28;19920;-70
2021/12/02 07:04:58;;;;;;;;;;;32.10;71.00;;;;;;5035039;28;19909;-69
2021/12/02 07:07:30;;;;;;;;;;;31.70;71.50;;;;;;5034918;28;19913;-70
2021/12/02 07:09:58;;;;;;;;;;;31.30;71.40;;;;;;5018077;28;19909;-70
2021/12/02 07:12:31;;;;;;;;;;;31.00;72.10;;;;;;5034909;28;19916;-69
2021/12/02 07:14:59;;;;;;;;;;;30.60;72.50;;;;;;5034878;28;20344;-71
2021/12/02 07:17:26;;;;;;;;;;;30.30;73.00;;;;;;5034682;28;19909;-70
2021/12/02 07:19:53;;;;;;;;;;;30.00;73.60;;;;;;5035447;28;19920;-70
2021/12/02 07:22:19;;;;;;;;;;;30.20;73.80;;;;;;5011120;28;19922;-71
2021/12/02 07:24:46;;;;;;;;;;;30.40;73.70;;;;;;5010185;28;19916;-71
2021/12/02 07:27:13;;;;;;;;;;;30.50;73.60;;;;;;5034593;28;20372;-71
2021/12/02 07:29:41;;;;;;;;;;;30.50;73.40;;;;;;5016890;28;20004;-70
2021/12/02 07:32:10;;;;;;;;;;;30.40;73.30;;;;;;5034911;28;19909;-67
2021/12/02 07:34:37;;;;;;;;;;;30.30;73.60;;;;;;5000695;28;19958;-71
2021/12/02 07:37:04;;;;;;;;;;;30.10;73.40;;;;;;5016452;28;20051;-71
2021/12/02 07:39:31;;;;;;;;;;;29.90;74.10;;;;;;5034346;28;19924;-71
2021/12/02 07:41:58;;;;;;;;;;;29.80;74.40;;;;;;5034337;28;19917;-69
2021/12/02 07:44:25;;;;;;;;;;;29.70;74.70;;;;;;5034316;28;19916;-70
2021/12/02 07:46:52;;;;;;;;;;;29.50;74.50;;;;;;5034187;28;19909;-68
2021/12/02 07:49:18;;;;;;;;;;;29.40;74.80;;;;;;5034108;28;19948;-68
2021/12/02 07:51:45;;;;;;;;;;;29.10;75.00;;;;;;5034184;28;19909;-70
2021/12/02 07:54:13;;;;;;;;;;;29.00;75.30;;;;;;5016569;28;19909;-68
2021/12/02 07:56:39;;;;;;;;;;;28.80;75.70;;;;;;5016700;28;19971;-71
2021/12/02 07:59:09;;;;;;;;;;;28.60;76.20;;;;;;5033943;28;19932;-69
2021/12/02 08:01:39;;;;;;;;;;;28.40;76.30;;;;;;5034277;28;19913;-70
2021/12/02 08:04:05;;;;;;;;;;;28.20;76.70;;;;;;5016173;28;19909;-72
2021/12/02 08:06:32;;;;;;;;;;;28.10;77.30;;;;;;5016148;28;19910;-70
2021/12/02 08:08:58;;;;;;;;;;;27.90;77.10;;;;;;5033793;28;19910;-67
2021/12/02 08:11:25;;;;;;;;;;;27.70;78.20;;;;;;5035950;28;20395;-70
2021/12/02 08:13:55;;;;;;;;;;;27.60;78.20;;;;;;5016980;28;20604;-70
2021/12/02 08:16:22;;;;;;;;;;;27.40;78.60;;;;;;5034369;28;20358;-69
2021/12/02 08:18:48;;;;;;;;;;;27.30;78.60;;;;;;5024125;28;19913;-70
2021/12/02 08:21:15;;;;;;;;;;;27.10;78.60;;;;;;5013714;28;19913;-69
2021/12/02 08:23:42;;;;;;;;;;;27.00;79.00;;;;;;4996091;28;19916;-70
2021/12/02 08:26:08;;;;;;;;;;;26.80;79.60;;;;;;5013721;28;19909;-69
2021/12/02 08:28:35;;;;;;;;;;;26.70;79.80;;;;;;5013647;28;19910;-69
2021/12/02 08:31:02;;;;;;;;;;;26.60;80.20;;;;;;5013626;28;19910;-69
2021/12/02 08:33:28;;;;;;;;;;;26.50;80.60;;;;;;5014723;28;19909;-69
2021/12/02 08:35:55;;;;;;;;;;;26.30;81.10;;;;;;5023488;28;19921;-70
2021/12/02 08:38:30;;;;;;;;;;;26.20;81.50;;;;;;5032964;28;20381;-69
2021/12/02 08:40:58;;;;;;;;;;;26.10;82.30;;;;;;5015613;28;20317;-69
2021/12/02 08:43:25;;;;;;;;;;;26.00;82.50;;;;;;5033145;28;19910;-71
2021/12/02 08:45:52;;;;;;;;;;;25.90;83.00;;;;;;5015752;28;19996;-70
2021/12/02 08:48:19;;;;;;;;;;;25.70;83.60;;;;;;4998677;28;20362;-71
2021/12/02 08:50:47;;;;;;;;;;;25.60;84.10;;;;;;5015435;28;19916;-70
2021/12/02 08:53:13;;;;;;;;;;;25.50;84.30;;;;;;5033191;28;19915;-71
2021/12/02 08:55:40;;;;;;;;;;;25.30;85.20;;;;;;5032937;28;19913;-71
2021/12/02 08:58:09;;;;;;;;;;;25.20;85.40;;;;;;5032995;28;19910;-70
2021/12/02 09:00:36;;;;;;;;;;;25.10;85.80;;;;;;5033063;28;19909;-71
2021/12/02 09:03:03;;;;;;;;;;;25.10;86.40;;;;;;5015343;28;19967;-71
2021/12/02 09:05:30;;;;;;;;;;;25.00;86.60;;;;;;5032425;28;19917;-71
2021/12/02 09:07:57;;;;;;;;;;;24.90;87.30;;;;;;5032779;28;19909;-69
2021/12/02 09:10:25;;;;;;;;;;;24.90;87.80;;;;;;5015334;28;19909;-70
2021/12/02 09:12:52;;;;;;;;;;;24.70;88.20;;;;;;5032887;28;19913;-70
2021/12/02 09:15:19;;;;;;;;;;;24.60;88.90;;;;;;5032984;28;19935;-69
2021/12/02 09:17:46;;;;;;;;;;;24.50;89.70;;;;;;5033147;28;19910;-72
2021/12/02 09:20:15;;;;;;;;;;;24.50;90.00;;;;;;5013540;28;19951;-70
2021/12/02 09:22:42;;;;;;;;;;;24.50;90.20;;;;;;4979406;28;20397;-73
2021/12/02 09:25:09;;;;;;;;;;;24.40;90.40;;;;;;4979328;28;19910;-73
2021/12/02 09:27:36;;;;;;;;;;;24.30;90.60;;;;;;4995583;28;19960;-72
2021/12/02 09:30:03;;;;;;;;;;;24.30;90.80;;;;;;5012909;28;19971;-73
2021/12/02 09:32:29;;;;;;;;;;;24.20;91.00;;;;;;5013562;28;19980;-73
2021/12/02 09:34:56;;;;;;;;;;;24.20;91.30;;;;;;5013451;28;19909;-73
2021/12/02 09:37:23;;;;;;;;;;;24.10;91.90;;;;;;5013047;28;20012;-72
2021/12/02 09:39:50;;;;;;;;;;;24.00;92.00;;;;;;4979746;28;19920;-71
2021/12/02 09:42:16;;;;;;;;;;;24.00;92.40;;;;;;5012928;28;19984;-72
2021/12/02 09:44:44;;;;;;;;;;;23.90;92.70;;;;;;5014135;28;19928;-73
2021/12/02 09:47:11;;;;;;;;;;;23.90;93.10;;;;;;5024416;28;19917;-73
2021/12/02 09:49:37;;;;;;;;;;;23.80;93.50;;;;;;5027911;28;20369;-73
2021/12/02 09:52:08;;;;;;;;;;;23.80;93.80;;;;;;5012783;28;19914;-72
2021/12/02 09:57:10;;;;;;;;;;;23.80;94.50;;;;;;5003963;28;19909;-72
2021/12/02 10:02:08;;;;;;;;;;;23.70;94.90;;;;;;5038765;28;19916;-73
2021/12/02 10:04:43;;;;;;;;;;;23.60;95.10;;;;;;5037375;28;19920;-72
2021/12/02 10:07:30;;;;;;;;;;;23.60;95.20;;;;;;4998641;28;19913;-72
2021/12/02 10:10:27;;;;;;;;;;;23.50;95.40;;;;;;5009356;28;19920;-72
2021/12/02 10:13:05;;;;;;;;;;;23.50;95.60;;;;;;5020837;28;20301;-72
2021/12/02 10:15:35;;;;;;;;;;;23.40;95.80;;;;;;5028549;28;19909;-73
2021/12/02 10:18:13;;;;;;;;;;;23.30;95.80;;;;;;5025908;28;19963;-73
2021/12/02 10:20:43;;;;;;;;;;;23.30;95.90;;;;;;5024632;28;19913;-72
2021/12/02 10:25:47;;;;;;;;;;;23.30;96.40;;;;;;5031284;28;19939;-73
2021/12/02 10:28:14;;;;;;;;;;;23.30;96.70;;;;;;5017865;28;20011;-72
2021/12/02 10:31:00;;;;;;;;;;;23.30;96.50;;;;;;5035571;28;19932;-72
2021/12/02 10:33:36;;;;;;;;;;;23.30;96.60;;;;;;5017809;28;19916;-72
2021/12/02 10:36:04;;;;;;;;;;;23.20;96.70;;;;;;5035335;28;19915;-72
2021/12/02 10:38:34;;;;;;;;;;;23.20;96.90;;;;;;5035197;28;19921;-73
2021/12/02 10:41:02;;;;;;;;;;;23.20;97.00;;;;;;5035172;28;20364;-74
2021/12/02 10:43:28;;;;;;;;;;;23.10;97.20;;;;;;5017817;28;19909;-72
2021/12/02 10:46:13;;;;;;;;;;;23.10;97.20;;;;;;5017317;28;19913;-72
2021/12/02 10:48:48;;;;;;;;;;;23.10;97.20;;;;;;5035360;28;19920;-72
2021/12/02 10:51:34;;;;;;;;;;;23.10;97.30;;;;;;5017138;28;19975;-72
2021/12/02 10:54:02;;;;;;;;;;;23.00;97.50;;;;;;5026435;28;20012;-72
2021/12/02 10:56:32;;;;;;;;;;;23.00;97.60;;;;;;5015309;28;19910;-72
2021/12/02 10:59:10;;;;;;;;;;;23.00;97.90;;;;;;5015430;28;19972;-74
2021/12/02 11:01:38;;;;;;;;;;;22.90;98.10;;;;;;4997787;28;19913;-73
2021/12/02 11:04:05;;;;;;;;;;;22.90;98.10;;;;;;5015451;28;19965;-73
2021/12/02 11:06:42;;;;;;;;;;;22.80;98.30;;;;;;5015210;28;19944;-70
2021/12/02 11:09:25;;;;;;;;;;;22.80;98.30;;;;;;5015066;28;19916;-72
2021/12/02 11:12:08;;;;;;;;;;;22.80;98.40;;;;;;5024113;28;19913;-71
2021/12/02 11:14:35;;;;;;;;;;;22.70;98.60;;;;;;5010136;28;19909;-72
2021/12/02 11:17:20;;;;;;;;;;;22.70;98.70;;;;;;5001177;28;19913;-72
2021/12/02 11:19:49;;;;;;;;;;;22.70;98.90;;;;;;5045246;28;19908;-71
2021/12/02 11:22:17;;;;;;;;;;;22.70;98.90;;;;;;5054640;28;19916;-72
2021/12/02 11:24:44;;;;;;;;;;;22.70;98.90;;;;;;5020939;28;19983;-72
2021/12/02 11:27:12;;;;;;;;;;;22.70;99.00;;;;;;5034471;28;19982;-72
2021/12/02 11:29:48;;;;;;;;;;;22.60;99.00;;;;;;5034484;28;19916;-72
2021/12/02 11:32:28;;;;;;;;;;;22.60;99.10;;;;;;5034530;28;19915;-72
2021/12/02 11:35:07;;;;;;;;;;;22.60;99.20;;;;;;5034433;28;19996;-72
2021/12/02 11:37:35;;;;;;;;;;;22.50;99.30;;;;;;5014285;28;19968;-72
2021/12/02 11:40:06;;;;;;;;;;;22.50;99.40;;;;;;5016837;28;19913;-72
2021/12/02 11:42:33;;;;;;;;;;;22.50;99.40;;;;;;5014332;28;20374;-72
2021/12/02 11:44:59;;;;;;;;;;;22.40;99.60;;;;;;5014507;28;19956;-73
2021/12/02 11:47:26;;;;;;;;;;;22.40;99.70;;;;;;5014614;28;19963;-72
2021/12/02 11:49:53;;;;;;;;;;;22.30;99.80;;;;;;5015119;28;19909;-72
2021/12/02 11:52:20;;;;;;;;;;;22.30;99.80;;;;;;4982158;28;19910;-72
2021/12/02 11:54:46;;;;;;;;;;;22.30;99.90;;;;;;5014264;28;19910;-72
2021/12/02 11:57:13;;;;;;;;;;;22.30;99.90;;;;;;5014204;28;20394;-72
2021/12/02 11:59:40;;;;;;;;;;;22.30;99.90;;;;;;5016817;28;19917;-72
2021/12/02 12:02:07;;;;;;;;;;;22.20;99.90;;;;;;5023296;28;19918;-72
2021/12/02 12:04:38;;;;;;;;;;;22.20;99.90;;;;;;4996784;28;20346;-72
2021/12/02 12:07:11;;;;;;;;;;;22.20;99.90;;;;;;5016091;28;20337;-72
2021/12/02 12:09:38;;;;;;;;;;;22.10;99.90;;;;;;5051836;28;19913;-72
2021/12/02 12:12:05;;;;;;;;;;;22.10;99.90;;;;;;5036109;28;20332;-72
2021/12/02 12:14:39;;;;;;;;;;;22.00;99.90;;;;;;5053690;28;19909;-72
2021/12/02 12:17:07;;;;;;;;;;;22.00;99.90;;;;;;5053920;28;19913;-72
2021/12/02 12:19:38;;;;;;;;;;;22.00;99.90;;;;;;5037768;28;19936;-72
2021/12/02 12:22:06;;;;;;;;;;;22.00;99.90;;;;;;5033585;28;19913;-72
2021/12/02 12:24:42;;;;;;;;;;;21.90;99.90;;;;;;5032687;28;19971;-72
2021/12/02 12:27:15;;;;;;;;;;;21.90;99.90;;;;;;5033450;28;19909;-72
2021/12/02 12:29:42;;;;;;;;;;;21.90;99.90;;;;;;5032720;28;19917;-72
2021/12/02 12:32:17;;;;;;;;;;;21.80;99.90;;;;;;5031890;28;19909;-72
2021/12/02 12:38:02;;;;;;;;;;;21.80;99.90;;;;;;5016056;28;19928;-72
2021/12/02 12:40:08;;;;;;;;;;;21.80;99.90;;;;;;5019192;28;20377;-71
2021/12/02 12:42:58;;;;;;;;;;;21.70;99.90;;;;;;5033162;28;19917;-71
2021/12/02 12:45:24;;;;;;;;;;;21.70;99.90;;;;;;5027859;28;19909;-71
2021/12/02 12:47:52;;;;;;;;;;;21.70;99.90;;;;;;5048646;28;19963;-72
2021/12/02 12:50:39;;;;;;;;;;;21.70;99.90;;;;;;5052988;28;20327;-72
2021/12/02 12:53:06;;;;;;;;;;;21.60;99.90;;;;;;5018827;28;20280;-72
2021/12/02 12:55:34;;;;;;;;;;;21.60;99.90;;;;;;5053114;28;19909;-72
2021/12/02 12:58:08;;;;;;;;;;;21.60;99.90;;;;;;5035268;28;19916;-72
2021/12/02 13:00:44;;;;;;;;;;;21.50;99.90;;;;;;5052963;28;20384;-72
2021/12/02 13:03:21;;;;;;;;;;;21.50;99.90;;;;;;5052941;28;19913;-72
2021/12/02 13:05:54;;;;;;;;;;;21.50;99.90;;;;;;5035285;28;20361;-72
2021/12/02 13:08:25;;;;;;;;;;;21.50;99.90;;;;;;5053023;28;19962;-72
2021/12/02 13:10:54;;;;;;;;;;;21.40;99.90;;;;;;5052880;28;19954;-72
2021/12/02 13:13:28;;;;;;;;;;;21.40;99.90;;;;;;5052946;28;19913;-72
2021/12/02 13:16:06;;;;;;;;;;;21.40;99.90;;;;;;5035189;28;20324;-72
2021/12/02 13:18:34;;;;;;;;;;;21.40;99.90;;;;;;5035081;28;19916;-72
2021/12/02 13:21:21;;;;;;;;;;;21.30;99.90;;;;;;5052709;28;19962;-72
2021/12/02 13:23:58;;;;;;;;;;;21.30;99.90;;;;;;5052792;28;19951;-72
2021/12/02 13:26:37;;;;;;;;;;;21.30;99.90;;;;;;5052781;28;19909;-72
2021/12/02 13:29:04;;;;;;;;;;;21.20;99.90;;;;;;5052836;28;19913;-72
2021/12/02 13:31:30;;;;;;;;;;;21.20;99.90;;;;;;5052771;28;20336;-72
2021/12/02 13:34:05;;;;;;;;;;;21.20;99.90;;;;;;5052772;28;20377;-72
2021/12/02 13:36:32;;;;;;;;;;;21.20;99.90;;;;;;5055976;28;19909;-71
2021/12/02 13:39:00;;;;;;;;;;;21.20;99.90;;;;;;5056506;28;20380;-72
2021/12/02 13:41:27;;;;;;;;;;;21.10;99.90;;;;;;5056585;28;19912;-72
2021/12/02 13:44:03;;;;;;;;;;;21.10;99.90;;;;;;5056567;28;19915;-72
2021/12/02 13:46:33;;;;;;;;;;;21.10;99.90;;;;;;5022410;28;20521;-72
2021/12/02 13:49:02;;;;;;;;;;;21.10;99.90;;;;;;5056470;28;20371;-72
2021/12/02 13:54:18;;;;;;;;;;;21.10;99.90;;;;;;5056418;28;20000;-72
2021/12/02 13:56:45;;;;;;;;;;;21.00;99.90;;;;;;5056388;28;19909;-72
2021/12/02 13:59:15;;;;;;;;;;;21.00;99.90;;;;;;5056182;28;20336;-72
2021/12/02 14:01:51;;;;;;;;;;;21.00;99.90;;;;;;5056101;28;20354;-72
2021/12/02 14:04:18;;;;;;;;;;;21.00;99.90;;;;;;5056212;28;20015;-72
2021/12/02 14:06:45;;;;;;;;;;;21.00;99.90;;;;;;5056214;28;19916;-72
2021/12/02 14:09:16;;;;;;;;;;;21.00;99.90;;;;;;5056084;28;19909;-72
2021/12/02 14:11:44;;;;;;;;;;;21.00;99.90;;;;;;5055837;28;19915;-72
2021/12/02 14:14:19;;;;;;;;;;;21.00;99.90;;;;;;5055992;28;19913;-72
2021/12/02 14:16:46;;;;;;;;;;;21.00;99.90;;;;;;5056039;28;19908;-72
2021/12/02 14:19:15;;;;;;;;;;;20.90;99.90;;;;;;5056107;28;19935;-72
2021/12/02 14:21:42;;;;;;;;;;;21.00;99.90;;;;;;5037936;28;19913;-72
2021/12/02 14:24:08;;;;;;;;;;;21.00;99.90;;;;;;5037993;28;19916;-72
2021/12/02 14:26:35;;;;;;;;;;;21.00;99.90;;;;;;5055736;28;19909;-72
2021/12/02 14:29:02;;;;;;;;;;;21.00;99.90;;;;;;5055739;28;19936;-72
2021/12/02 14:31:31;;;;;;;;;;;21.00;99.90;;;;;;5055763;28;19947;-72
2021/12/02 14:34:00;;;;;;;;;;;21.00;99.90;;;;;;5055704;28;19909;-72
2021/12/02 14:36:27;;;;;;;;;;;21.00;99.90;;;;;;5037917;28;19909;-72
2021/12/02 14:39:07;;;;;;;;;;;20.90;99.90;;;;;;5055244;28;19932;-72
2021/12/02 14:41:42;;;;;;;;;;;20.90;99.90;;;;;;5055400;28;19966;-72
2021/12/02 14:44:15;;;;;;;;;;;20.90;99.90;;;;;;5055486;28;19916;-72
2021/12/02 14:46:43;;;;;;;;;;;20.90;99.90;;;;;;5054361;28;19909;-72
2021/12/02 14:49:14;;;;;;;;;;;20.90;99.90;;;;;;5055366;28;19909;-73
2021/12/02 14:51:57;;;;;;;;;;;20.90;99.90;;;;;;5037714;28;19913;-72
2021/12/02 14:54:31;;;;;;;;;;;20.90;99.90;;;;;;5037745;28;19909;-72
2021/12/02 14:56:58;;;;;;;;;;;20.90;99.90;;;;;;5055161;28;19909;-72
2021/12/02 14:59:24;;;;;;;;;;;20.80;99.90;;;;;;5037272;28;19942;-72
2021/12/02 15:02:08;;;;;;;;;;;20.80;99.90;;;;;;5055070;28;19913;-72
2021/12/02 15:04:51;;;;;;;;;;;20.80;99.90;;;;;;5055061;28;19963;-72